Time;durP1;ratioP1;P1;durP2;ratioP2;P2;SDS_P1;SDS_P2;PMS_P1;PMS_P2;Temp;Humidity;BMP_temperature;BMP_pressure;BME280_temperature;BME280_humidity;BME280_pressure;Samples;Min_cycle;Max_cycle;Signal;HPM_P1;HPM_P2
2022/08/03 00:04:29;;;;;;;;;;;;;;;24.90;45.64;100406.75;20527725;28;98306;-77
2022/08/03 00:14:29;;;;;;;;;;;;;;;24.88;45.09;100400.81;20534692;28;100739;-77
2022/08/03 00:24:30;;;;;;;;;;;;;;;24.80;45.73;100405.97;20530082;28;100510;-77
2022/08/03 00:34:30;;;;;;;;;;;;;;;24.72;45.55;100414.63;20544814;28;99332;-77
2022/08/03 00:44:31;;;;;;;;;;;;;;;24.63;45.66;100421.56;20533052;28;101506;-77
2022/08/03 00:54:32;;;;;;;;;;;;;;;24.50;45.86;100419.22;20529023;28;98409;-76
2022/08/03 01:04:32;;;;;;;;;;;;;;;24.44;45.85;100422.41;20526326;28;100342;-76
2022/08/03 01:14:37;;;;;;;;;;;;;;;24.25;46.40;100436.47;20533499;28;98495;-77
2022/08/03 01:25:01;;;;;;;;;;;;;;;24.26;46.38;100444.25;20532151;28;98868;-77
2022/08/03 01:35:21;;;;;;;;;;;;;;;24.31;46.25;100441.19;20529252;28;98986;-77
2022/08/03 01:45:23;;;;;;;;;;;;;;;24.23;46.23;100433.97;20548939;28;99706;-76
2022/08/03 01:55:27;;;;;;;;;;;;;;;24.14;46.68;100432.13;20544078;28;98094;-76
2022/08/03 02:05:30;;;;;;;;;;;;;;;24.08;46.71;100430.88;20547271;28;98698;-77
2022/08/03 02:15:31;;;;;;;;;;;;;;;24.08;47.00;100422.09;20538687;28;98564;-77
2022/08/03 02:25:33;;;;;;;;;;;;;;;23.94;47.30;100421.53;20540789;28;100285;-77
2022/08/03 02:35:34;;;;;;;;;;;;;;;23.93;47.44;100430.41;20533958;28;100413;-79
2022/08/03 02:45:41;;;;;;;;;;;;;;;23.88;48.09;100437.09;20538385;28;100323;-76
2022/08/03 02:55:42;;;;;;;;;;;;;;;23.85;48.11;100435.50;20540001;28;101429;-76
2022/08/03 03:05:43;;;;;;;;;;;;;;;23.75;48.98;100448.72;20523319;28;98552;-76
2022/08/03 03:15:44;;;;;;;;;;;;;;;23.71;49.31;100438.56;20513004;28;100651;-76
2022/08/03 03:25:45;;;;;;;;;;;;;;;23.61;49.73;100449.09;20538179;28;98258;-76
2022/08/03 03:35:45;;;;;;;;;;;;;;;23.63;49.89;100448.00;20534072;28;99164;-76
2022/08/03 03:45:47;;;;;;;;;;;;;;;23.57;50.11;100443.25;20537636;28;98451;-77
2022/08/03 03:55:47;;;;;;;;;;;;;;;23.48;50.69;100447.50;20538168;28;101096;-77
2022/08/03 04:16:09;;;;;;;;;;;;;;;23.43;51.25;100462.91;20529479;28;101804;-75
2022/08/03 04:26:10;;;;;;;;;;;;;;;23.34;51.86;100477.75;20533860;28;101085;-76
2022/08/03 04:36:13;;;;;;;;;;;;;;;23.37;51.67;100473.19;20512104;28;97768;-76
2022/08/03 04:46:14;;;;;;;;;;;;;;;23.32;51.99;100484.97;20503882;28;98672;-76
2022/08/03 04:56:14;;;;;;;;;;;;;;;23.38;52.13;100494.19;20532159;28;99036;-77
2022/08/03 05:06:14;;;;;;;;;;;;;;;23.46;51.89;100514.66;20565584;28;98743;-77
2022/08/03 05:16:15;;;;;;;;;;;;;;;23.53;52.00;100515.00;20547360;28;100914;-79
2022/08/03 05:26:15;;;;;;;;;;;;;;;23.62;51.80;100519.47;20570047;28;98066;-79
2022/08/03 05:36:15;;;;;;;;;;;;;;;23.70;51.52;100529.41;20556085;28;99159;-79
2022/08/03 05:46:16;;;;;;;;;;;;;;;23.78;51.48;100527.78;20562986;28;98359;-76
2022/08/03 05:56:16;;;;;;;;;;;;;;;23.90;51.32;100535.59;20525965;28;98603;-75
2022/08/03 06:06:17;;;;;;;;;;;;;;;23.94;51.42;100542.34;20519651;28;98742;-77
2022/08/03 06:16:17;;;;;;;;;;;;;;;23.96;51.67;100550.97;20549728;28;101332;-77
2022/08/03 06:26:18;;;;;;;;;;;;;;;24.06;51.48;100543.06;20538367;28;98186;-75
2022/08/03 06:36:18;;;;;;;;;;;;;;;24.20;51.09;100548.00;20575385;28;98494;-76
2022/08/03 06:46:19;;;;;;;;;;;;;;;24.32;51.03;100551.38;20576174;28;98896;-76
2022/08/03 06:56:19;;;;;;;;;;;;;;;24.45;50.62;100541.38;20558490;28;97899;-76
2022/08/03 07:06:21;;;;;;;;;;;;;;;24.59;50.12;100555.19;20549277;28;98368;-76
2022/08/03 07:16:22;;;;;;;;;;;;;;;24.68;49.50;100549.13;20547983;28;98368;-76
2022/08/03 07:26:22;;;;;;;;;;;;;;;24.80;48.93;100548.97;20556654;28;101816;-75
2022/08/03 07:36:23;;;;;;;;;;;;;;;24.91;49.13;100547.03;20522068;28;102250;-76
2022/08/03 07:46:24;;;;;;;;;;;;;;;25.03;48.69;100536.28;20568913;28;98970;-76
2022/08/03 07:56:25;;;;;;;;;;;;;;;25.15;48.92;100536.97;20566979;28;101838;-75
2022/08/03 08:06:25;;;;;;;;;;;;;;;25.28;48.52;100539.31;20553014;28;101827;-74
2022/08/03 08:16:25;;;;;;;;;;;;;;;25.34;47.20;100547.53;20555184;28;98402;-76
2022/08/03 08:26:26;;;;;;;;;;;;;;;25.44;46.58;100538.75;20567019;28;99501;-76
2022/08/03 08:36:26;;;;;;;;;;;;;;;25.52;46.55;100542.38;20546563;28;98132;-76
2022/08/03 08:46:29;;;;;;;;;;;;;;;25.56;46.00;100537.59;20544655;28;101455;-77
2022/08/03 08:56:31;;;;;;;;;;;;;;;25.66;46.43;100530.44;20532227;28;99720;-76
2022/08/03 09:06:31;;;;;;;;;;;;;;;25.75;46.14;100528.75;20526554;28;101410;-75
2022/08/03 09:16:33;;;;;;;;;;;;;;;25.81;44.69;100520.19;20545833;28;101363;-76
2022/08/03 09:26:37;;;;;;;;;;;;;;;25.89;44.46;100516.84;20572472;28;98625;-74
2022/08/03 09:36:47;;;;;;;;;;;;;;;25.97;44.49;100511.59;20566431;28;97895;-72
2022/08/03 09:46:53;;;;;;;;;;;;;;;26.09;44.56;100503.50;20534183;28;99794;-75
2022/08/03 09:56:53;;;;;;;;;;;;;;;26.16;43.49;100491.31;20539853;28;99067;-76
2022/08/03 10:07:15;;;;;;;;;;;;;;;26.26;43.39;100483.28;20555510;28;101033;-82
2022/08/03 10:17:19;;;;;;;;;;;;;;;26.51;42.51;100465.72;20544158;28;98907;-83
2022/08/03 10:27:21;;;;;;;;;;;;;;;26.65;43.16;100467.03;20559518;28;98105;-78
2022/08/03 10:37:22;;;;;;;;;;;;;;;26.67;45.34;100460.56;20568347;28;98167;-75
2022/08/03 10:47:23;;;;;;;;;;;;;;;26.65;44.45;100451.09;20535516;28;98858;-73
2022/08/03 10:57:41;;;;;;;;;;;;;;;26.62;44.97;100440.78;20531907;28;98820;-80
2022/08/03 11:07:42;;;;;;;;;;;;;;;26.68;44.76;100434.84;20524044;28;98599;-74
2022/08/03 11:18:02;;;;;;;;;;;;;;;26.68;41.52;100425.06;20544232;28;101114;-71
2022/08/03 11:28:29;;;;;;;;;;;;;;;26.70;42.16;100416.94;20569090;28;98296;-70
2022/08/03 11:38:31;;;;;;;;;;;;;;;26.78;42.10;100410.88;20543963;28;99156;-79
2022/08/03 11:48:36;;;;;;;;;;;;;;;26.83;41.92;100403.25;20580412;28;97055;-79
2022/08/03 11:58:36;;;;;;;;;;;;;;;26.88;42.50;100393.03;20567159;28;97940;-77
2022/08/03 12:08:37;;;;;;;;;;;;;;;26.95;41.59;100382.59;20558226;28;101237;-77
2022/08/03 12:18:37;;;;;;;;;;;;;;;27.04;40.83;100375.47;20560953;28;98161;-78
2022/08/03 12:28:45;;;;;;;;;;;;;;;27.12;40.75;100368.41;20558337;28;97698;-77
2022/08/03 12:38:53;;;;;;;;;;;;;;;27.23;40.61;100361.13;20563185;28;99309;-78
2022/08/03 12:49:00;;;;;;;;;;;;;;;27.31;40.36;100351.34;20560990;28;100226;-78
2022/08/03 12:59:20;;;;;;;;;;;;;;;27.39;39.09;100337.28;20560088;28;101190;-80
2022/08/03 13:09:20;;;;;;;;;;;;;;;27.49;38.83;100331.84;20527237;28;99344;-77
2022/08/03 13:19:20;;;;;;;;;;;;;;;27.57;38.99;100325.72;20548806;28;99149;-79
2022/08/03 13:29:21;;;;;;;;;;;;;;;27.64;38.17;100313.44;20543828;28;100281;-79
2022/08/03 13:39:21;;;;;;;;;;;;;;;27.73;38.29;100303.63;20478320;28;98828;-78
2022/08/03 13:49:23;;;;;;;;;;;;;;;27.81;37.70;100298.31;20497344;28;99237;-79
2022/08/03 13:59:24;;;;;;;;;;;;;;;27.88;37.86;100294.00;20491262;28;98780;-78
2022/08/03 14:09:24;;;;;;;;;;;;;;;27.98;37.70;100279.69;20470051;28;101665;-79
2022/08/03 14:19:24;;;;;;;;;;;;;;;28.01;37.44;100264.22;20488220;28;100705;-79
2022/08/03 14:29:25;;;;;;;;;;;;;;;27.98;37.21;100269.03;20493162;28;98656;-78
2022/08/03 14:39:25;;;;;;;;;;;;;;;27.93;37.15;100250.94;20561339;28;100299;-79
2022/08/03 14:49:25;;;;;;;;;;;;;;;27.90;37.15;100248.59;20560583;28;98781;-79
2022/08/03 14:59:27;;;;;;;;;;;;;;;27.98;37.43;100242.44;20566115;28;99226;-79
2022/08/03 15:09:27;;;;;;;;;;;;;;;28.08;36.74;100245.78;20568460;28;97972;-78
2022/08/03 15:19:29;;;;;;;;;;;;;;;28.17;37.10;100242.09;20570481;28;98550;-78
2022/08/03 15:29:29;;;;;;;;;;;;;;;28.19;36.52;100237.44;20580286;28;100720;-80
2022/08/03 15:39:30;;;;;;;;;;;;;;;28.20;36.14;100239.13;20594381;28;98836;-81
2022/08/03 15:49:30;;;;;;;;;;;;;;;28.21;35.18;100238.13;20596933;28;98528;-79
2022/08/03 15:59:41;;;;;;;;;;;;;;;28.22;35.03;100230.94;20587305;28;98049;-79
2022/08/03 16:09:42;;;;;;;;;;;;;;;28.20;35.57;100225.00;20583556;28;100398;-79
2022/08/03 16:19:43;;;;;;;;;;;;;;;28.18;35.97;100229.63;20558995;28;100975;-79
2022/08/03 16:29:45;;;;;;;;;;;;;;;28.15;36.17;100225.50;20583059;28;97955;-80
2022/08/03 16:39:46;;;;;;;;;;;;;;;28.14;36.42;100217.66;20592767;28;98826;-78
2022/08/03 16:49:50;;;;;;;;;;;;;;;28.13;36.85;100226.66;20569374;28;98259;-78
2022/08/03 16:59:51;;;;;;;;;;;;;;;28.11;36.51;100221.47;20580639;28;97508;-79
2022/08/03 17:09:51;;;;;;;;;;;;;;;28.09;36.92;100231.50;20558314;28;99083;-77
2022/08/03 17:19:55;;;;;;;;;;;;;;;28.08;36.89;100246.59;20567907;28;100215;-79
2022/08/03 17:29:58;;;;;;;;;;;;;;;28.05;37.56;100251.44;20583113;28;98169;-79
2022/08/03 17:39:58;;;;;;;;;;;;;;;28.03;37.88;100256.91;20509516;28;98301;-75
2022/08/03 17:50:00;;;;;;;;;;;;;;;27.99;37.63;100260.91;20474385;28;101204;-76
2022/08/03 18:10:28;;;;;;;;;;;;;;;27.91;38.03;100274.22;20482225;28;99917;-75
2022/08/03 18:20:28;;;;;;;;;;;;;;;27.83;37.84;100269.72;20476668;28;98602;-74
2022/08/03 18:30:29;;;;;;;;;;;;;;;27.77;38.37;100287.19;20498106;28;98511;-75
2022/08/03 18:40:29;;;;;;;;;;;;;;;27.73;38.94;100285.81;20563466;28;98926;-74
2022/08/03 18:50:32;;;;;;;;;;;;;;;27.68;39.12;100297.97;20574120;28;97761;-74
2022/08/03 19:00:37;;;;;;;;;;;;;;;27.66;38.57;100305.28;20568183;28;101093;-74
2022/08/03 19:10:38;;;;;;;;;;;;;;;27.63;39.46;100317.09;20564640;28;101327;-77
2022/08/03 19:20:39;;;;;;;;;;;;;;;27.60;39.58;100326.22;20583192;28;101678;-79
2022/08/03 19:30:39;;;;;;;;;;;;;;;27.57;39.83;100331.84;20579705;28;97918;-78
2022/08/03 19:40:42;;;;;;;;;;;;;;;27.52;39.47;100344.00;20475373;28;100959;-78
2022/08/03 19:50:43;;;;;;;;;;;;;;;27.47;40.23;100345.28;20466667;28;98820;-77
2022/08/03 20:00:43;;;;;;;;;;;;;;;27.45;40.53;100346.44;20465499;28;98584;-76
2022/08/03 20:10:46;;;;;;;;;;;;;;;27.42;40.45;100352.94;20475205;28;101313;-76
2022/08/03 20:20:48;;;;;;;;;;;;;;;27.37;40.21;100349.91;20490135;28;98359;-75
2022/08/03 20:30:49;;;;;;;;;;;;;;;27.36;40.34;100342.09;20497059;28;98457;-79
2022/08/03 20:40:49;;;;;;;;;;;;;;;27.33;39.84;100351.19;20569560;28;98778;-77
2022/08/03 20:50:49;;;;;;;;;;;;;;;27.32;39.83;100349.56;20539418;28;100758;-76
2022/08/03 21:00:50;;;;;;;;;;;;;;;27.28;39.89;100356.16;20565297;28;100123;-75
2022/08/03 21:10:51;;;;;;;;;;;;;;;27.23;39.95;100353.16;20562571;28;98703;-76
2022/08/03 21:20:54;;;;;;;;;;;;;;;27.16;39.50;100361.78;20556154;28;98358;-76
2022/08/03 21:30:55;;;;;;;;;;;;;;;27.13;39.21;100370.06;20547518;28;101159;-75
2022/08/03 21:40:56;;;;;;;;;;;;;;;27.09;39.30;100379.34;20551219;28;98888;-76
2022/08/03 21:50:56;;;;;;;;;;;;;;;27.09;39.67;100381.19;20562130;28;98549;-75
2022/08/03 22:01:01;;;;;;;;;;;;;;;27.06;39.74;100386.81;20547563;28;100385;-75
2022/08/03 22:11:02;;;;;;;;;;;;;;;27.00;39.94;100385.59;20583353;28;98505;-74
2022/08/03 22:21:03;;;;;;;;;;;;;;;26.98;39.71;100392.91;20574442;28;97916;-75
2022/08/03 22:31:04;;;;;;;;;;;;;;;26.95;40.27;100396.72;20573467;28;98776;-75
2022/08/03 22:41:05;;;;;;;;;;;;;;;26.93;40.34;100398.69;20559520;28;98809;-74
2022/08/03 22:51:05;;;;;;;;;;;;;;;26.84;40.23;100400.47;20550129;28;101268;-75
2022/08/03 23:01:07;;;;;;;;;;;;;;;26.83;40.41;100413.88;20568661;28;98417;-75
2022/08/03 23:11:07;;;;;;;;;;;;;;;26.79;40.35;100407.22;20566861;28;97907;-75
2022/08/03 23:21:08;;;;;;;;;;;;;;;26.70;40.45;100416.94;20576534;28;98443;-75
2022/08/03 23:31:08;;;;;;;;;;;;;;;26.65;40.41;100424.53;20569228;28;100922;-75
2022/08/03 23:41:09;;;;;;;;;;;;;;;26.62;39.98;100431.00;20568278;28;101169;-75
2022/08/03 23:51:12;;;;;;;;;;;;;;;26.35;40.61;100424.81;20580008;28;98528;-74
